^^
Paulen-Weather Station Historical Data
Daily Summary for July 22, 2022 Units:  Metric    English   Both
Daily Weekly Monthly Yearly Custom
  High: Low: Average:
Temperature: 21 °C 19 °C 19.4 °C
Dew Point: 19 °C 18 °C 18.3 °C
Humidity: 96% 89% 94%
Wind Speed: 10km/h 1km/h 5.9km/h
Wind Gust: 9km/h - -
Wind- - WNW
Pressure: 1010.46 hPa 1009.79 hPa -
Precipitation: 0 mm    
Historical Graphs
 
 
Tabular Data for July 22, 2022
Time Temperature Dew Point Pressure Wind Wind Speed Wind Gust Humidity Rainfall Rate (Hourly) solar
00:04 19 °C 18 °C 1010.46 hPa ESE 1 km/h 1 km/h 95% 0 mm 0 W/m2
00:09 19 °C 18 °C 1010.46 hPa ESE 3 km/h 2 km/h 95% 0 mm 0 W/m2
00:14 19 °C 18 °C 1010.46 hPa ESE 2 km/h 2 km/h 95% 0 mm 0 W/m2
00:19 19 °C 18 °C 1010.43 hPa ESE 1 km/h 1 km/h 95% 0 mm 0 W/m2
00:24 19 °C 18 °C 1010.43 hPa ESE 2 km/h 2 km/h 95% 0 mm 0 W/m2
00:29 19 °C 18 °C 1010.36 hPa NE 4 km/h 4 km/h 95% 0 mm 0 W/m2
00:34 19 °C 18 °C 1010.33 hPa NNW 6 km/h 4 km/h 95% 0 mm 0 W/m2
00:39 19 °C 18 °C 1010.33 hPa NNW 5 km/h 5 km/h 95% 0 mm 0 W/m2
00:44 19 °C 18 °C 1010.3 hPa NNW 5 km/h 5 km/h 96% 0 mm 0 W/m2
00:49 19 °C 18 °C 1010.26 hPa NNW 5 km/h 4 km/h 96% 0 mm 0 W/m2
00:54 19 °C 18 °C 1010.19 hPa NNW 4 km/h 4 km/h 96% 0 mm 0 W/m2
00:59 19 °C 18 °C 1010.19 hPa NNW 5 km/h 4 km/h 96% 0 mm 0 W/m2
01:04 19 °C 18 °C 1010.19 hPa NNW 6 km/h 7 km/h 96% 0 mm 0 W/m2
01:09 19 °C 18 °C 1010.13 hPa NNW 6 km/h 6 km/h 96% 0 mm 0 W/m2
01:14 19 °C 18 °C 1010.13 hPa NW 6 km/h 5 km/h 96% 0 mm 0 W/m2
01:19 19 °C 18 °C 1010.13 hPa NW 1 km/h 2 km/h 96% 0 mm 0 W/m2
01:24 19 °C 18 °C 1010.02 hPa NW 1 km/h 1 km/h 96% 0 mm 0 W/m2
01:29 19 °C 18 °C 1009.99 hPa NW 4 km/h 3 km/h 96% 0 mm 0 W/m2
01:34 19 °C 18 °C 1009.96 hPa NW 4 km/h 3 km/h 96% 0 mm 0 W/m2
01:39 19 °C 18 °C 1009.96 hPa NW 4 km/h 3 km/h 96% 0 mm 0 W/m2
01:44 19 °C 18 °C 1009.96 hPa NW 5 km/h 6 km/h 96% 0 mm 0 W/m2
01:49 19 °C 18 °C 1009.92 hPa NW 9 km/h 8 km/h 96% 0 mm 0 W/m2
01:54 19 °C 18 °C 1009.96 hPa NW 8 km/h 8 km/h 96% 0 mm 0 W/m2
01:59 19 °C 18 °C 1009.99 hPa NW 5 km/h 4 km/h 96% 0 mm 0 W/m2
02:04 19 °C 18 °C 1009.96 hPa NW 7 km/h 7 km/h 95% 0 mm 0 W/m2
02:09 19 °C 18 °C 1009.85 hPa NW 9 km/h 9 km/h 95% 0 mm 0 W/m2
02:14 19 °C 18 °C 1009.89 hPa NW 9 km/h 9 km/h 95% 0 mm 0 W/m2
02:19 19 °C 18 °C 1009.89 hPa NW 9 km/h 8 km/h 94% 0 mm 0 W/m2
02:24 19 °C 18 °C 1009.85 hPa NW 8 km/h 7 km/h 94% 0 mm 0 W/m2
02:29 19 °C 18 °C 1009.82 hPa NW 8 km/h 8 km/h 94% 0 mm 0 W/m2
02:34 20 °C 19 °C 1009.82 hPa NW 8 km/h 7 km/h 93% 0 mm 0 W/m2
02:39 20 °C 19 °C 1009.82 hPa NW 9 km/h 8 km/h 93% 0 mm 0 W/m2
02:44 20 °C 19 °C 1009.82 hPa NW 9 km/h 9 km/h 92% 0 mm 0 W/m2
02:49 20 °C 19 °C 1009.85 hPa NW 10 km/h 9 km/h 91% 0 mm 0 W/m2
02:54 20 °C 19 °C 1009.85 hPa NW 9 km/h 8 km/h 91% 0 mm 0 W/m2
02:59 20 °C 19 °C 1009.82 hPa NW 8 km/h 7 km/h 91% 0 mm 0 W/m2
03:04 20 °C 19 °C 1009.79 hPa NW 7 km/h 7 km/h 90% 0 mm 0 W/m2
03:09 20 °C 19 °C 1009.82 hPa NW 7 km/h 7 km/h 90% 0 mm 0 W/m2
03:14 20 °C 19 °C 1009.82 hPa NW 8 km/h 9 km/h 90% 0 mm 0 W/m2
03:19 20 °C 19 °C 1009.79 hPa NW 9 km/h 9 km/h 89% 0 mm 0 W/m2
03:24 21 °C 19 °C 1009.79 hPa NW 7 km/h 8 km/h 89% 0 mm 0 W/m2
03:29 21 °C 19 °C 1009.85 hPa NNW 5 km/h 5 km/h 89% 0 mm 0 W/m2
03:34 21 °C 19 °C 1009.89 hPa NNW 3 km/h 3 km/h 89% 0 mm 0 W/m2
03:39 20 °C 19 °C 1009.96 hPa ESE 9 km/h 9 km/h 89% 0 mm 0 W/m2
03:44 20 °C 19 °C 1009.96 hPa ESE 7 km/h 7 km/h 89% 0 mm 0 W/m2
03:49 20 °C 19 °C 1009.89 hPa SE 5 km/h 5 km/h 90% 0 mm 0 W/m2
Compliments of Weather Underground - 2 mb